sensor_id;sensor_type;location;lat;lon;timestamp;temperature;humidity
6841;DHT22;3458;53.678;14.080;2023-06-26T00:01:50;21.70;99.90
6841;DHT22;3458;53.678;14.080;2023-06-26T00:04:15;21.60;99.90
6841;DHT22;3458;53.678;14.080;2023-06-26T00:06:41;21.60;99.90
6841;DHT22;3458;53.678;14.080;2023-06-26T00:09:07;21.60;99.90
6841;DHT22;3458;53.678;14.080;2023-06-26T00:11:32;21.50;99.90
6841;DHT22;3458;53.678;14.080;2023-06-26T00:14:01;21.50;99.90
6841;DHT22;3458;53.678;14.080;2023-06-26T00:16:27;21.50;99.90
6841;DHT22;3458;53.678;14.080;2023-06-26T00:18:53;21.50;99.90
6841;DHT22;3458;53.678;14.080;2023-06-26T00:21:19;21.50;99.90
6841;DHT22;3458;53.678;14.080;2023-06-26T00:23:45;21.50;99.90
6841;DHT22;3458;53.678;14.080;2023-06-26T00:26:11;21.50;99.90
6841;DHT22;3458;53.678;14.080;2023-06-26T00:28:37;21.40;99.90
6841;DHT22;3458;53.678;14.080;2023-06-26T00:31:02;21.40;99.90
6841;DHT22;3458;53.678;14.080;2023-06-26T00:33:28;21.40;99.90
6841;DHT22;3458;53.678;14.080;2023-06-26T00:35:53;21.40;99.90
6841;DHT22;3458;53.678;14.080;2023-06-26T00:38:19;21.40;99.90
6841;DHT22;3458;53.678;14.080;2023-06-26T00:40:44;21.40;99.90
6841;DHT22;3458;53.678;14.080;2023-06-26T00:43:10;21.40;99.90
6841;DHT22;3458;53.678;14.080;2023-06-26T00:45:35;21.40;99.90
6841;DHT22;3458;53.678;14.080;2023-06-26T00:48:01;21.40;99.90
6841;DHT22;3458;53.678;14.080;2023-06-26T00:50:27;21.40;99.90
6841;DHT22;3458;53.678;14.080;2023-06-26T00:52:53;21.40;99.90
6841;DHT22;3458;53.678;14.080;2023-06-26T00:55:22;21.40;99.90
6841;DHT22;3458;53.678;14.080;2023-06-26T00:57:47;21.30;99.90
6841;DHT22;3458;53.678;14.080;2023-06-26T01:00:13;21.30;99.90
6841;DHT22;3458;53.678;14.080;2023-06-26T01:02:39;21.30;99.90
6841;DHT22;3458;53.678;14.080;2023-06-26T01:05:05;21.30;99.90
6841;DHT22;3458;53.678;14.080;2023-06-26T01:07:33;21.20;99.90
6841;DHT22;3458;53.678;14.080;2023-06-26T01:10:05;21.20;99.90
6841;DHT22;3458;53.678;14.080;2023-06-26T01:12:32;21.10;99.90
6841;DHT22;3458;53.678;14.080;2023-06-26T01:14:59;21.10;99.90
6841;DHT22;3458;53.678;14.080;2023-06-26T01:17:26;21.10;99.90
6841;DHT22;3458;53.678;14.080;2023-06-26T01:19:53;21.10;99.90
6841;DHT22;3458;53.678;14.080;2023-06-26T01:22:47;21.10;99.90
6841;DHT22;3458;53.678;14.080;2023-06-26T01:25:35;21.00;99.90
6841;DHT22;3458;53.678;14.080;2023-06-26T01:28:04;21.00;99.90
6841;DHT22;3458;53.678;14.080;2023-06-26T01:30:32;21.00;99.90
6841;DHT22;3458;53.678;14.080;2023-06-26T01:32:58;21.00;99.90
6841;DHT22;3458;53.678;14.080;2023-06-26T01:35:25;21.00;99.90
6841;DHT22;3458;53.678;14.080;2023-06-26T01:37:51;21.00;99.90
6841;DHT22;3458;53.678;14.080;2023-06-26T01:40:17;21.00;99.90
6841;DHT22;3458;53.678;14.080;2023-06-26T01:42:42;21.00;99.90
6841;DHT22;3458;53.678;14.080;2023-06-26T01:45:27;20.90;99.90
6841;DHT22;3458;53.678;14.080;2023-06-26T01:47:56;21.00;99.90
6841;DHT22;3458;53.678;14.080;2023-06-26T01:50:26;21.00;99.90
6841;DHT22;3458;53.678;14.080;2023-06-26T01:53:12;21.00;99.90
6841;DHT22;3458;53.678;14.080;2023-06-26T01:55:49;21.00;99.90
6841;DHT22;3458;53.678;14.080;2023-06-26T01:58:15;20.90;99.90
6841;DHT22;3458;53.678;14.080;2023-06-26T02:00:42;20.90;99.90
6841;DHT22;3458;53.678;14.080;2023-06-26T02:03:08;20.90;99.90
6841;DHT22;3458;53.678;14.080;2023-06-26T02:05:34;20.90;99.90
6841;DHT22;3458;53.678;14.080;2023-06-26T02:07:59;20.80;99.90
6841;DHT22;3458;53.678;14.080;2023-06-26T02:10:27;20.80;99.90
6841;DHT22;3458;53.678;14.080;2023-06-26T02:12:52;20.80;99.90
6841;DHT22;3458;53.678;14.080;2023-06-26T02:15:18;20.80;99.90
6841;DHT22;3458;53.678;14.080;2023-06-26T02:17:43;20.70;99.90
6841;DHT22;3458;53.678;14.080;2023-06-26T02:20:14;20.70;99.90
6841;DHT22;3458;53.678;14.080;2023-06-26T02:22:40;20.70;99.90
6841;DHT22;3458;53.678;14.080;2023-06-26T02:25:06;20.70;99.90
6841;DHT22;3458;53.678;14.080;2023-06-26T02:27:32;20.70;99.90
6841;DHT22;3458;53.678;14.080;2023-06-26T02:29:57;20.70;99.90
6841;DHT22;3458;53.678;14.080;2023-06-26T02:32:23;20.70;99.90
6841;DHT22;3458;53.678;14.080;2023-06-26T02:34:48;20.70;99.90
6841;DHT22;3458;53.678;14.080;2023-06-26T02:37:14;20.70;99.90
6841;DHT22;3458;53.678;14.080;2023-06-26T02:39:41;20.70;99.90
6841;DHT22;3458;53.678;14.080;2023-06-26T02:42:06;20.70;99.90
6841;DHT22;3458;53.678;14.080;2023-06-26T02:44:32;20.70;99.90
6841;DHT22;3458;53.678;14.080;2023-06-26T02:46:58;20.70;99.90
6841;DHT22;3458;53.678;14.080;2023-06-26T02:49:23;20.70;99.90
6841;DHT22;3458;53.678;14.080;2023-06-26T02:51:49;20.70;99.90
6841;DHT22;3458;53.678;14.080;2023-06-26T02:54:14;20.70;99.90
6841;DHT22;3458;53.678;14.080;2023-06-26T02:56:40;20.70;99.90
6841;DHT22;3458;53.678;14.080;2023-06-26T02:59:05;20.70;99.90
6841;DHT22;3458;53.678;14.080;2023-06-26T03:01:31;20.70;99.90
6841;DHT22;3458;53.678;14.080;2023-06-26T03:03:56;20.70;99.90
6841;DHT22;3458;53.678;14.080;2023-06-26T03:06:22;20.70;99.90
6841;DHT22;3458;53.678;14.080;2023-06-26T03:08:47;20.70;99.90
6841;DHT22;3458;53.678;14.080;2023-06-26T03:11:13;20.80;99.90
6841;DHT22;3458;53.678;14.080;2023-06-26T03:13:38;20.80;99.90
6841;DHT22;3458;53.678;14.080;2023-06-26T03:16:04;20.70;99.90
6841;DHT22;3458;53.678;14.080;2023-06-26T03:18:30;20.80;99.90
6841;DHT22;3458;53.678;14.080;2023-06-26T03:20:56;20.80;99.90
6841;DHT22;3458;53.678;14.080;2023-06-26T03:23:22;20.80;99.90
6841;DHT22;3458;53.678;14.080;2023-06-26T03:25:48;20.80;99.90
6841;DHT22;3458;53.678;14.080;2023-06-26T03:28:14;20.80;99.90
6841;DHT22;3458;53.678;14.080;2023-06-26T03:30:40;20.80;99.90
6841;DHT22;3458;53.678;14.080;2023-06-26T03:33:05;20.90;99.90
6841;DHT22;3458;53.678;14.080;2023-06-26T03:35:31;20.90;99.90
6841;DHT22;3458;53.678;14.080;2023-06-26T03:37:57;20.80;99.90
6841;DHT22;3458;53.678;14.080;2023-06-26T03:40:22;20.80;99.90
6841;DHT22;3458;53.678;14.080;2023-06-26T03:42:48;20.80;99.90
6841;DHT22;3458;53.678;14.080;2023-06-26T03:45:14;20.80;99.90
6841;DHT22;3458;53.678;14.080;2023-06-26T03:47:39;20.80;99.90
6841;DHT22;3458;53.678;14.080;2023-06-26T03:50:05;20.80;99.90
6841;DHT22;3458;53.678;14.080;2023-06-26T03:52:31;20.80;99.90
6841;DHT22;3458;53.678;14.080;2023-06-26T03:55:00;20.80;99.90
6841;DHT22;3458;53.678;14.080;2023-06-26T03:57:25;20.80;99.90
6841;DHT22;3458;53.678;14.080;2023-06-26T03:59:52;20.80;99.90
6841;DHT22;3458;53.678;14.080;2023-06-26T04:02:17;20.90;99.90
6841;DHT22;3458;53.678;14.080;2023-06-26T04:04:44;20.90;99.90
6841;DHT22;3458;53.678;14.080;2023-06-26T04:07:09;20.90;99.90
6841;DHT22;3458;53.678;14.080;2023-06-26T04:09:36;20.90;99.90
6841;DHT22;3458;53.678;14.080;2023-06-26T04:12:02;20.90;99.90
6841;DHT22;3458;53.678;14.080;2023-06-26T04:14:28;21.00;99.90
6841;DHT22;3458;53.678;14.080;2023-06-26T04:16:53;21.00;99.90
6841;DHT22;3458;53.678;14.080;2023-06-26T04:19:19;21.00;99.90
6841;DHT22;3458;53.678;14.080;2023-06-26T04:21:45;21.10;99.90
6841;DHT22;3458;53.678;14.080;2023-06-26T04:24:10;21.10;99.90
6841;DHT22;3458;53.678;14.080;2023-06-26T04:26:36;21.10;99.90
6841;DHT22;3458;53.678;14.080;2023-06-26T04:29:02;21.10;99.90
6841;DHT22;3458;53.678;14.080;2023-06-26T04:31:28;21.10;99.90
6841;DHT22;3458;53.678;14.080;2023-06-26T04:33:54;21.10;99.90
6841;DHT22;3458;53.678;14.080;2023-06-26T04:36:20;21.10;99.90
6841;DHT22;3458;53.678;14.080;2023-06-26T04:38:46;21.10;99.90
6841;DHT22;3458;53.678;14.080;2023-06-26T04:41:13;21.10;99.90
6841;DHT22;3458;53.678;14.080;2023-06-26T04:43:39;21.20;99.90
6841;DHT22;3458;53.678;14.080;2023-06-26T04:46:05;21.20;99.90
6841;DHT22;3458;53.678;14.080;2023-06-26T04:48:31;21.20;99.90
6841;DHT22;3458;53.678;14.080;2023-06-26T04:50:56;21.20;99.90
6841;DHT22;3458;53.678;14.080;2023-06-26T04:53:24;21.20;99.90
6841;DHT22;3458;53.678;14.080;2023-06-26T04:55:50;21.30;99.90
6841;DHT22;3458;53.678;14.080;2023-06-26T04:58:16;21.30;99.90
6841;DHT22;3458;53.678;14.080;2023-06-26T05:00:42;21.30;99.90
6841;DHT22;3458;53.678;14.080;2023-06-26T05:03:08;21.30;99.90
6841;DHT22;3458;53.678;14.080;2023-06-26T05:05:34;21.40;99.90
6841;DHT22;3458;53.678;14.080;2023-06-26T05:08:16;21.40;99.90
6841;DHT22;3458;53.678;14.080;2023-06-26T05:10:42;21.40;99.90
6841;DHT22;3458;53.678;14.080;2023-06-26T05:13:08;21.40;99.90
6841;DHT22;3458;53.678;14.080;2023-06-26T05:15:33;21.50;99.90
6841;DHT22;3458;53.678;14.080;2023-06-26T05:17:59;21.50;99.90
6841;DHT22;3458;53.678;14.080;2023-06-26T05:20:24;21.50;99.90
6841;DHT22;3458;53.678;14.080;2023-06-26T05:22:50;21.50;99.90
6841;DHT22;3458;53.678;14.080;2023-06-26T05:25:16;21.50;99.90
6841;DHT22;3458;53.678;14.080;2023-06-26T05:27:43;21.60;99.90
6841;DHT22;3458;53.678;14.080;2023-06-26T05:30:09;21.60;99.90
6841;DHT22;3458;53.678;14.080;2023-06-26T05:32:35;21.60;99.90
6841;DHT22;3458;53.678;14.080;2023-06-26T05:35:02;21.60;99.90
6841;DHT22;3458;53.678;14.080;2023-06-26T05:37:30;21.60;99.90
6841;DHT22;3458;53.678;14.080;2023-06-26T05:39:56;21.70;99.90
6841;DHT22;3458;53.678;14.080;2023-06-26T05:42:22;21.70;99.90
6841;DHT22;3458;53.678;14.080;2023-06-26T05:44:48;21.70;99.90
6841;DHT22;3458;53.678;14.080;2023-06-26T05:47:13;21.70;99.90
6841;DHT22;3458;53.678;14.080;2023-06-26T05:49:39;21.70;99.90
6841;DHT22;3458;53.678;14.080;2023-06-26T05:52:04;21.80;99.90
6841;DHT22;3458;53.678;14.080;2023-06-26T05:54:30;21.80;99.90
6841;DHT22;3458;53.678;14.080;2023-06-26T05:56:57;21.90;99.90
6841;DHT22;3458;53.678;14.080;2023-06-26T05:59:24;21.90;99.90
6841;DHT22;3458;53.678;14.080;2023-06-26T06:01:51;21.90;99.90
6841;DHT22;3458;53.678;14.080;2023-06-26T06:04:17;22.00;99.90
6841;DHT22;3458;53.678;14.080;2023-06-26T06:06:42;22.00;99.90
6841;DHT22;3458;53.678;14.080;2023-06-26T06:09:08;22.00;99.90
6841;DHT22;3458;53.678;14.080;2023-06-26T06:11:33;22.00;99.90
6841;DHT22;3458;53.678;14.080;2023-06-26T06:13:59;22.10;99.90
6841;DHT22;3458;53.678;14.080;2023-06-26T06:16:25;22.10;99.90
6841;DHT22;3458;53.678;14.080;2023-06-26T06:18:51;22.10;99.90
6841;DHT22;3458;53.678;14.080;2023-06-26T06:21:16;22.20;99.90
6841;DHT22;3458;53.678;14.080;2023-06-26T06:23:42;22.20;99.90
6841;DHT22;3458;53.678;14.080;2023-06-26T06:26:07;22.30;99.90
6841;DHT22;3458;53.678;14.080;2023-06-26T06:28:33;22.30;99.90
6841;DHT22;3458;53.678;14.080;2023-06-26T06:30:58;22.30;99.90
6841;DHT22;3458;53.678;14.080;2023-06-26T06:33:24;22.40;99.90
6841;DHT22;3458;53.678;14.080;2023-06-26T06:35:49;22.40;99.90
6841;DHT22;3458;53.678;14.080;2023-06-26T06:38:15;22.50;99.90
6841;DHT22;3458;53.678;14.080;2023-06-26T06:40:40;22.50;99.90
6841;DHT22;3458;53.678;14.080;2023-06-26T06:43:06;22.50;99.90
6841;DHT22;3458;53.678;14.080;2023-06-26T06:45:31;22.60;99.90
6841;DHT22;3458;53.678;14.080;2023-06-26T06:47:57;22.60;99.90
6841;DHT22;3458;53.678;14.080;2023-06-26T06:50:22;22.70;99.90
6841;DHT22;3458;53.678;14.080;2023-06-26T06:52:48;22.70;99.90
6841;DHT22;3458;53.678;14.080;2023-06-26T06:55:13;22.70;99.90
6841;DHT22;3458;53.678;14.080;2023-06-26T06:57:40;22.80;99.90
6841;DHT22;3458;53.678;14.080;2023-06-26T07:00:12;22.80;99.90
6841;DHT22;3458;53.678;14.080;2023-06-26T07:02:42;22.80;99.90
6841;DHT22;3458;53.678;14.080;2023-06-26T07:05:09;22.90;99.90
6841;DHT22;3458;53.678;14.080;2023-06-26T07:07:35;22.90;99.90
6841;DHT22;3458;53.678;14.080;2023-06-26T07:10:09;22.90;99.90
6841;DHT22;3458;53.678;14.080;2023-06-26T07:12:36;23.00;99.90
6841;DHT22;3458;53.678;14.080;2023-06-26T07:15:03;23.00;99.90
6841;DHT22;3458;53.678;14.080;2023-06-26T07:17:30;23.10;99.90
6841;DHT22;3458;53.678;14.080;2023-06-26T07:19:56;23.10;99.90
6841;DHT22;3458;53.678;14.080;2023-06-26T07:22:21;23.20;99.90
6841;DHT22;3458;53.678;14.080;2023-06-26T07:24:47;23.30;99.90
6841;DHT22;3458;53.678;14.080;2023-06-26T07:27:17;23.40;99.90
6841;DHT22;3458;53.678;14.080;2023-06-26T07:29:45;23.50;99.90
6841;DHT22;3458;53.678;14.080;2023-06-26T07:32:11;23.60;99.90
6841;DHT22;3458;53.678;14.080;2023-06-26T07:34:37;23.70;99.90
6841;DHT22;3458;53.678;14.080;2023-06-26T07:37:03;23.70;99.90
6841;DHT22;3458;53.678;14.080;2023-06-26T07:39:28;23.70;99.90
6841;DHT22;3458;53.678;14.080;2023-06-26T07:41:54;23.80;99.90
6841;DHT22;3458;53.678;14.080;2023-06-26T07:44:20;23.80;99.90
6841;DHT22;3458;53.678;14.080;2023-06-26T07:46:45;23.80;99.90
6841;DHT22;3458;53.678;14.080;2023-06-26T07:49:11;23.80;99.90
6841;DHT22;3458;53.678;14.080;2023-06-26T07:51:37;23.80;99.90
6841;DHT22;3458;53.678;14.080;2023-06-26T07:54:03;23.80;99.90
6841;DHT22;3458;53.678;14.080;2023-06-26T07:56:29;23.80;99.90
6841;DHT22;3458;53.678;14.080;2023-06-26T07:58:54;23.80;99.90
6841;DHT22;3458;53.678;14.080;2023-06-26T08:01:20;23.80;99.90
6841;DHT22;3458;53.678;14.080;2023-06-26T08:03:45;23.90;99.90
6841;DHT22;3458;53.678;14.080;2023-06-26T08:06:11;24.10;99.90
6841;DHT22;3458;53.678;14.080;2023-06-26T08:08:36;24.20;99.90
6841;DHT22;3458;53.678;14.080;2023-06-26T08:11:02;24.40;99.90
6841;DHT22;3458;53.678;14.080;2023-06-26T08:13:27;24.60;99.90
6841;DHT22;3458;53.678;14.080;2023-06-26T08:15:53;24.60;99.90
6841;DHT22;3458;53.678;14.080;2023-06-26T08:18:19;24.60;99.90
6841;DHT22;3458;53.678;14.080;2023-06-26T08:20:44;24.60;99.90
6841;DHT22;3458;53.678;14.080;2023-06-26T08:23:10;24.60;99.90
6841;DHT22;3458;53.678;14.080;2023-06-26T08:25:35;24.70;99.90
6841;DHT22;3458;53.678;14.080;2023-06-26T08:28:00;24.70;99.90
6841;DHT22;3458;53.678;14.080;2023-06-26T08:30:26;24.80;99.90
6841;DHT22;3458;53.678;14.080;2023-06-26T08:32:56;24.70;99.90
6841;DHT22;3458;53.678;14.080;2023-06-26T08:35:22;24.80;99.90
6841;DHT22;3458;53.678;14.080;2023-06-26T08:37:47;24.90;99.90
6841;DHT22;3458;53.678;14.080;2023-06-26T08:40:17;24.90;99.90
6841;DHT22;3458;53.678;14.080;2023-06-26T08:42:43;24.80;99.90
6841;DHT22;3458;53.678;14.080;2023-06-26T08:45:09;24.90;99.90
6841;DHT22;3458;53.678;14.080;2023-06-26T08:47:35;24.90;99.90
6841;DHT22;3458;53.678;14.080;2023-06-26T08:50:13;24.90;99.90
6841;DHT22;3458;53.678;14.080;2023-06-26T08:52:53;24.80;99.90
6841;DHT22;3458;53.678;14.080;2023-06-26T08:55:20;24.80;99.90
6841;DHT22;3458;53.678;14.080;2023-06-26T08:57:50;24.80;99.90
6841;DHT22;3458;53.678;14.080;2023-06-26T09:00:16;24.70;99.90
6841;DHT22;3458;53.678;14.080;2023-06-26T09:02:43;24.70;99.90
6841;DHT22;3458;53.678;14.080;2023-06-26T09:05:09;24.70;99.90
6841;DHT22;3458;53.678;14.080;2023-06-26T09:07:35;24.70;99.90
6841;DHT22;3458;53.678;14.080;2023-06-26T09:10:00;24.70;99.90
6841;DHT22;3458;53.678;14.080;2023-06-26T09:12:29;24.80;99.90
6841;DHT22;3458;53.678;14.080;2023-06-26T09:14:56;24.80;99.90
6841;DHT22;3458;53.678;14.080;2023-06-26T09:17:29;24.80;99.90
6841;DHT22;3458;53.678;14.080;2023-06-26T09:19:55;24.80;99.90
6841;DHT22;3458;53.678;14.080;2023-06-26T09:22:20;24.80;99.90
6841;DHT22;3458;53.678;14.080;2023-06-26T09:24:47;24.80;99.90
6841;DHT22;3458;53.678;14.080;2023-06-26T09:27:12;25.00;99.90
6841;DHT22;3458;53.678;14.080;2023-06-26T09:29:38;25.20;99.90
6841;DHT22;3458;53.678;14.080;2023-06-26T09:32:04;25.40;99.90
6841;DHT22;3458;53.678;14.080;2023-06-26T09:34:31;25.50;99.90
6841;DHT22;3458;53.678;14.080;2023-06-26T09:36:57;25.60;99.90
6841;DHT22;3458;53.678;14.080;2023-06-26T09:39:23;25.80;99.90
6841;DHT22;3458;53.678;14.080;2023-06-26T09:41:50;26.00;99.90
6841;DHT22;3458;53.678;14.080;2023-06-26T09:44:15;26.20;99.90
6841;DHT22;3458;53.678;14.080;2023-06-26T09:46:44;26.30;99.90
6841;DHT22;3458;53.678;14.080;2023-06-26T09:49:11;26.30;99.80
6841;DHT22;3458;53.678;14.080;2023-06-26T09:51:37;26.40;99.30
6841;DHT22;3458;53.678;14.080;2023-06-26T09:54:04;26.50;99.00
6841;DHT22;3458;53.678;14.080;2023-06-26T09:56:31;26.50;99.50
6841;DHT22;3458;53.678;14.080;2023-06-26T09:58:58;26.50;97.60
6841;DHT22;3458;53.678;14.080;2023-06-26T10:01:25;26.40;96.60
6841;DHT22;3458;53.678;14.080;2023-06-26T10:03:51;26.30;96.30
6841;DHT22;3458;53.678;14.080;2023-06-26T10:06:29;26.40;95.80
6841;DHT22;3458;53.678;14.080;2023-06-26T10:08:58;26.50;95.60
6841;DHT22;3458;53.678;14.080;2023-06-26T10:11:25;26.60;95.30
6841;DHT22;3458;53.678;14.080;2023-06-26T10:13:55;26.80;95.10
6841;DHT22;3458;53.678;14.080;2023-06-26T10:16:26;26.80;94.30
6841;DHT22;3458;53.678;14.080;2023-06-26T10:19:00;26.80;94.20
6841;DHT22;3458;53.678;14.080;2023-06-26T10:21:28;27.00;94.90
6841;DHT22;3458;53.678;14.080;2023-06-26T10:23:56;27.00;94.90
6841;DHT22;3458;53.678;14.080;2023-06-26T10:26:22;26.90;94.10
6841;DHT22;3458;53.678;14.080;2023-06-26T10:28:50;26.80;92.60
6841;DHT22;3458;53.678;14.080;2023-06-26T10:31:21;26.70;92.80
6841;DHT22;3458;53.678;14.080;2023-06-26T10:33:49;26.80;93.20
6841;DHT22;3458;53.678;14.080;2023-06-26T10:36:16;26.90;92.50
6841;DHT22;3458;53.678;14.080;2023-06-26T10:38:51;26.90;91.90
6841;DHT22;3458;53.678;14.080;2023-06-26T10:41:20;26.90;91.50
6841;DHT22;3458;53.678;14.080;2023-06-26T10:43:49;26.90;91.50
6841;DHT22;3458;53.678;14.080;2023-06-26T10:46:15;26.90;91.60
6841;DHT22;3458;53.678;14.080;2023-06-26T10:49:00;27.10;92.00
6841;DHT22;3458;53.678;14.080;2023-06-26T10:51:29;27.10;90.70
6841;DHT22;3458;53.678;14.080;2023-06-26T10:53:58;27.10;90.70
6841;DHT22;3458;53.678;14.080;2023-06-26T10:56:46;27.20;91.10
6841;DHT22;3458;53.678;14.080;2023-06-26T10:59:19;27.30;90.60
6841;DHT22;3458;53.678;14.080;2023-06-26T11:01:47;27.10;90.50
6841;DHT22;3458;53.678;14.080;2023-06-26T11:04:39;27.10;90.50
6841;DHT22;3458;53.678;14.080;2023-06-26T11:07:16;27.20;90.20
6841;DHT22;3458;53.678;14.080;2023-06-26T11:10:00;27.40;89.30
6841;DHT22;3458;53.678;14.080;2023-06-26T11:12:44;27.50;88.80
6841;DHT22;3458;53.678;14.080;2023-06-26T11:15:17;27.40;87.10
6841;DHT22;3458;53.678;14.080;2023-06-26T11:17:44;27.50;86.20
6841;DHT22;3458;53.678;14.080;2023-06-26T11:20:12;27.60;87.00
6841;DHT22;3458;53.678;14.080;2023-06-26T11:22:40;27.80;89.00
6841;DHT22;3458;53.678;14.080;2023-06-26T11:25:07;27.80;86.10
6841;DHT22;3458;53.678;14.080;2023-06-26T11:30:04;27.80;84.30
6841;DHT22;3458;53.678;14.080;2023-06-26T11:32:30;27.70;84.30
6841;DHT22;3458;53.678;14.080;2023-06-26T11:34:58;27.70;85.50
6841;DHT22;3458;53.678;14.080;2023-06-26T11:37:24;27.90;84.70
6841;DHT22;3458;53.678;14.080;2023-06-26T11:39:50;28.30;82.80
6841;DHT22;3458;53.678;14.080;2023-06-26T11:42:16;28.60;80.90
6841;DHT22;3458;53.678;14.080;2023-06-26T11:44:43;28.50;79.70
6841;DHT22;3458;53.678;14.080;2023-06-26T11:47:21;28.40;81.00
6841;DHT22;3458;53.678;14.080;2023-06-26T11:49:49;28.60;80.30
6841;DHT22;3458;53.678;14.080;2023-06-26T11:52:15;28.70;78.00
6841;DHT22;3458;53.678;14.080;2023-06-26T11:54:42;28.80;76.20
6841;DHT22;3458;53.678;14.080;2023-06-26T11:57:08;28.80;76.50
6841;DHT22;3458;53.678;14.080;2023-06-26T11:59:40;29.10;76.70
6841;DHT22;3458;53.678;14.080;2023-06-26T12:02:15;29.40;75.20
6841;DHT22;3458;53.678;14.080;2023-06-26T12:04:42;29.80;73.50
6841;DHT22;3458;53.678;14.080;2023-06-26T12:07:09;30.20;71.40
6841;DHT22;3458;53.678;14.080;2023-06-26T12:09:43;30.60;69.20
6841;DHT22;3458;53.678;14.080;2023-06-26T12:12:15;31.20;67.10
6841;DHT22;3458;53.678;14.080;2023-06-26T12:14:41;31.30;63.90
6841;DHT22;3458;53.678;14.080;2023-06-26T12:17:10;31.50;63.10
6841;DHT22;3458;53.678;14.080;2023-06-26T12:19:43;32.10;61.00
6841;DHT22;3458;53.678;14.080;2023-06-26T12:22:09;32.70;58.80
6841;DHT22;3458;53.678;14.080;2023-06-26T12:24:38;32.90;57.20
6841;DHT22;3458;53.678;14.080;2023-06-26T12:27:11;32.90;56.30
6841;DHT22;3458;53.678;14.080;2023-06-26T12:29:39;32.50;56.70
6841;DHT22;3458;53.678;14.080;2023-06-26T12:32:08;32.80;56.20
6841;DHT22;3458;53.678;14.080;2023-06-26T12:34:38;33.30;55.30
6841;DHT22;3458;53.678;14.080;2023-06-26T12:37:10;33.60;53.30
6841;DHT22;3458;53.678;14.080;2023-06-26T12:39:50;33.60;52.90
6841;DHT22;3458;53.678;14.080;2023-06-26T12:42:21;33.10;52.20
6841;DHT22;3458;53.678;14.080;2023-06-26T12:44:47;33.30;52.90
6841;DHT22;3458;53.678;14.080;2023-06-26T12:47:15;33.90;53.60
6841;DHT22;3458;53.678;14.080;2023-06-26T12:49:42;34.50;51.70
6841;DHT22;3458;53.678;14.080;2023-06-26T12:52:12;35.00;48.70
6841;DHT22;3458;53.678;14.080;2023-06-26T12:54:39;35.30;47.90
6841;DHT22;3458;53.678;14.080;2023-06-26T12:57:05;35.60;48.10
6841;DHT22;3458;53.678;14.080;2023-06-26T12:59:32;34.80;45.70
6841;DHT22;3458;53.678;14.080;2023-06-26T13:01:58;33.90;47.00
6841;DHT22;3458;53.678;14.080;2023-06-26T13:04:24;33.20;47.90
6841;DHT22;3458;53.678;14.080;2023-06-26T13:06:50;32.40;48.90
6841;DHT22;3458;53.678;14.080;2023-06-26T13:09:17;31.80;50.10
6841;DHT22;3458;53.678;14.080;2023-06-26T13:11:43;31.70;50.70
6841;DHT22;3458;53.678;14.080;2023-06-26T13:14:08;31.40;51.80
6841;DHT22;3458;53.678;14.080;2023-06-26T13:16:34;31.40;52.50
6841;DHT22;3458;53.678;14.080;2023-06-26T13:19:00;31.80;52.00
6841;DHT22;3458;53.678;14.080;2023-06-26T13:21:27;32.00;51.30
6841;DHT22;3458;53.678;14.080;2023-06-26T13:23:52;32.10;51.10
6841;DHT22;3458;53.678;14.080;2023-06-26T13:26:19;31.90;50.50
6841;DHT22;3458;53.678;14.080;2023-06-26T13:28:45;31.50;50.90
6841;DHT22;3458;53.678;14.080;2023-06-26T13:31:10;31.20;51.50
6841;DHT22;3458;53.678;14.080;2023-06-26T13:33:36;30.70;52.60
6841;DHT22;3458;53.678;14.080;2023-06-26T13:36:01;30.40;53.50
6841;DHT22;3458;53.678;14.080;2023-06-26T13:38:30;30.10;53.90
6841;DHT22;3458;53.678;14.080;2023-06-26T13:40:56;29.90;54.80
6841;DHT22;3458;53.678;14.080;2023-06-26T13:43:26;29.60;55.20
6841;DHT22;3458;53.678;14.080;2023-06-26T13:45:52;29.50;55.70
6841;DHT22;3458;53.678;14.080;2023-06-26T13:48:18;29.30;56.00
6841;DHT22;3458;53.678;14.080;2023-06-26T13:50:44;29.10;56.70
6841;DHT22;3458;53.678;14.080;2023-06-26T13:53:10;29.00;56.90
6841;DHT22;3458;53.678;14.080;2023-06-26T13:55:35;28.80;57.30
6841;DHT22;3458;53.678;14.080;2023-06-26T13:58:06;28.70;57.90
6841;DHT22;3458;53.678;14.080;2023-06-26T14:00:32;28.60;58.00
6841;DHT22;3458;53.678;14.080;2023-06-26T14:02:59;28.50;58.20
6841;DHT22;3458;53.678;14.080;2023-06-26T14:05:24;28.40;58.30
6841;DHT22;3458;53.678;14.080;2023-06-26T14:07:50;28.30;58.40
6841;DHT22;3458;53.678;14.080;2023-06-26T14:10:15;28.20;58.40
6841;DHT22;3458;53.678;14.080;2023-06-26T14:12:41;28.20;58.90
6841;DHT22;3458;53.678;14.080;2023-06-26T14:15:07;28.10;59.20
6841;DHT22;3458;53.678;14.080;2023-06-26T14:17:32;28.00;59.40
6841;DHT22;3458;53.678;14.080;2023-06-26T14:19:58;28.00;59.60
6841;DHT22;3458;53.678;14.080;2023-06-26T14:22:24;27.90;59.90
6841;DHT22;3458;53.678;14.080;2023-06-26T14:24:50;27.80;59.60
6841;DHT22;3458;53.678;14.080;2023-06-26T14:27:16;27.80;59.80
6841;DHT22;3458;53.678;14.080;2023-06-26T14:29:41;27.70;60.00
6841;DHT22;3458;53.678;14.080;2023-06-26T14:32:07;27.70;60.30
6841;DHT22;3458;53.678;14.080;2023-06-26T14:34:32;27.70;60.60
6841;DHT22;3458;53.678;14.080;2023-06-26T14:36:58;27.60;60.80
6841;DHT22;3458;53.678;14.080;2023-06-26T14:39:24;27.60;61.10
6841;DHT22;3458;53.678;14.080;2023-06-26T14:41:49;27.60;63.10
6841;DHT22;3458;53.678;14.080;2023-06-26T14:44:15;27.40;69.00
6841;DHT22;3458;53.678;14.080;2023-06-26T14:46:41;26.80;76.30
6841;DHT22;3458;53.678;14.080;2023-06-26T14:49:07;26.10;83.40
6841;DHT22;3458;53.678;14.080;2023-06-26T14:51:33;25.30;92.00
6841;DHT22;3458;53.678;14.080;2023-06-26T14:53:59;24.20;97.70
6841;DHT22;3458;53.678;14.080;2023-06-26T14:56:24;23.50;99.90
6841;DHT22;3458;53.678;14.080;2023-06-26T14:58:50;23.00;99.90
6841;DHT22;3458;53.678;14.080;2023-06-26T15:01:20;22.80;99.90
6841;DHT22;3458;53.678;14.080;2023-06-26T15:03:46;22.90;99.90
6841;DHT22;3458;53.678;14.080;2023-06-26T15:06:12;22.70;99.90
6841;DHT22;3458;53.678;14.080;2023-06-26T15:08:38;22.70;99.90
6841;DHT22;3458;53.678;14.080;2023-06-26T15:11:03;22.80;99.90
6841;DHT22;3458;53.678;14.080;2023-06-26T15:13:29;23.00;99.90
6841;DHT22;3458;53.678;14.080;2023-06-26T15:15:54;23.00;99.90
6841;DHT22;3458;53.678;14.080;2023-06-26T15:18:20;23.10;99.90
6841;DHT22;3458;53.678;14.080;2023-06-26T15:20:46;23.20;99.90
6841;DHT22;3458;53.678;14.080;2023-06-26T15:23:11;23.40;99.90
6841;DHT22;3458;53.678;14.080;2023-06-26T15:25:37;23.40;99.90
6841;DHT22;3458;53.678;14.080;2023-06-26T15:28:04;23.30;99.90
6841;DHT22;3458;53.678;14.080;2023-06-26T15:30:29;23.40;99.90
6841;DHT22;3458;53.678;14.080;2023-06-26T15:32:55;23.50;99.90
6841;DHT22;3458;53.678;14.080;2023-06-26T15:35:20;23.60;99.90
6841;DHT22;3458;53.678;14.080;2023-06-26T15:37:46;23.60;99.90
6841;DHT22;3458;53.678;14.080;2023-06-26T15:40:12;23.50;99.90
6841;DHT22;3458;53.678;14.080;2023-06-26T15:42:50;23.30;99.90
6841;DHT22;3458;53.678;14.080;2023-06-26T15:45:17;23.20;99.90
6841;DHT22;3458;53.678;14.080;2023-06-26T15:47:48;23.20;99.90